sensor_id;sensor_type;location;lat;lon;timestamp;P1;durP1;ratioP1;P2;durP2;ratioP2
49153;SDS011;49455;52.252;9.124;2022-09-02T07:42:57;1.98;;;1.40;;
49153;SDS011;49455;52.252;9.124;2022-09-02T07:47:58;2.33;;;1.37;;
49153;SDS011;49455;52.252;9.124;2022-09-02T07:52:59;5.43;;;1.45;;
49153;SDS011;49455;52.252;9.124;2022-09-02T07:58:04;1.98;;;1.45;;
49153;SDS011;49455;52.252;9.124;2022-09-02T08:03:04;3.50;;;1.77;;
49153;SDS011;49455;52.252;9.124;2022-09-02T08:08:10;3.95;;;2.03;;
49153;SDS011;49455;52.252;9.124;2022-09-02T08:13:11;3.97;;;1.50;;
49153;SDS011;49455;52.252;9.124;2022-09-02T08:18:12;2.23;;;1.47;;
49153;SDS011;49455;52.252;9.124;2022-09-02T08:23:13;1.63;;;1.30;;
49153;SDS011;49455;52.252;9.124;2022-09-02T08:28:13;3.38;;;1.60;;
49153;SDS011;49455;52.252;9.124;2022-09-02T08:33:14;3.95;;;1.38;;
49153;SDS011;49455;52.252;9.124;2022-09-02T08:38:14;2.58;;;1.58;;
49153;SDS011;49455;52.252;9.124;2022-09-02T08:48:36;2.45;;;1.30;;
49153;SDS011;49455;52.252;9.124;2022-09-02T08:53:52;4.35;;;1.48;;
49153;SDS011;49455;52.252;9.124;2022-09-02T08:59:21;3.72;;;1.63;;
49153;SDS011;49455;52.252;9.124;2022-09-02T09:10:03;5.50;;;1.60;;
49153;SDS011;49455;52.252;9.124;2022-09-02T09:20:23;3.13;;;1.42;;
49153;SDS011;49455;52.252;9.124;2022-09-02T09:25:26;8.30;;;2.10;;
49153;SDS011;49455;52.252;9.124;2022-09-02T09:30:28;2.45;;;1.27;;
49153;SDS011;49455;52.252;9.124;2022-09-02T09:35:45;4.50;;;1.83;;
49153;SDS011;49455;52.252;9.124;2022-09-02T09:40:48;4.07;;;1.50;;
49153;SDS011;49455;52.252;9.124;2022-09-02T09:45:48;2.33;;;1.43;;
49153;SDS011;49455;52.252;9.124;2022-09-02T09:55:59;1.42;;;1.30;;
49153;SDS011;49455;52.252;9.124;2022-09-02T10:01:11;8.07;;;2.20;;
49153;SDS011;49455;52.252;9.124;2022-09-02T10:06:19;3.47;;;1.60;;
49153;SDS011;49455;52.252;9.124;2022-09-02T10:11:25;10.45;;;2.10;;
49153;SDS011;49455;52.252;9.124;2022-09-02T10:26:53;3.80;;;1.90;;
49153;SDS011;49455;52.252;9.124;2022-09-02T10:37:38;6.38;;;1.90;;
49153;SDS011;49455;52.252;9.124;2022-09-02T11:03:50;4.53;;;1.70;;
49153;SDS011;49455;52.252;9.124;2022-09-02T11:08:59;3.28;;;1.40;;
49153;SDS011;49455;52.252;9.124;2022-09-02T11:19:24;5.05;;;1.35;;
49153;SDS011;49455;52.252;9.124;2022-09-02T11:30:08;3.53;;;1.45;;
49153;SDS011;49455;52.252;9.124;2022-09-02T11:35:13;4.25;;;1.40;;
49153;SDS011;49455;52.252;9.124;2022-09-02T11:40:30;2.92;;;1.70;;
49153;SDS011;49455;52.252;9.124;2022-09-02T11:51:04;4.68;;;1.70;;
49153;SDS011;49455;52.252;9.124;2022-09-02T11:56:12;4.13;;;1.50;;
49153;SDS011;49455;52.252;9.124;2022-09-02T12:06:25;11.23;;;2.28;;
49153;SDS011;49455;52.252;9.124;2022-09-02T12:11:33;3.17;;;1.80;;
49153;SDS011;49455;52.252;9.124;2022-09-02T12:16:42;3.92;;;1.92;;
49153;SDS011;49455;52.252;9.124;2022-09-02T12:27:23;2.15;;;1.52;;
49153;SDS011;49455;52.252;9.124;2022-09-02T12:42:51;3.88;;;1.83;;
49153;SDS011;49455;52.252;9.124;2022-09-02T12:47:57;1.90;;;1.48;;
49153;SDS011;49455;52.252;9.124;2022-09-02T12:53:25;3.58;;;1.80;;
49153;SDS011;49455;52.252;9.124;2022-09-02T12:58:35;4.15;;;1.70;;
49153;SDS011;49455;52.252;9.124;2022-09-02T13:25:31;3.03;;;1.50;;
49153;SDS011;49455;52.252;9.124;2022-09-02T13:31:09;6.00;;;1.60;;
49153;SDS011;49455;52.252;9.124;2022-09-02T13:36:28;3.63;;;1.30;;
49153;SDS011;49455;52.252;9.124;2022-09-02T13:41:33;2.22;;;1.27;;
49153;SDS011;49455;52.252;9.124;2022-09-02T13:46:41;2.00;;;1.37;;
49153;SDS011;49455;52.252;9.124;2022-09-02T13:51:46;3.90;;;1.50;;
49153;SDS011;49455;52.252;9.124;2022-09-02T13:56:48;2.20;;;1.50;;
49153;SDS011;49455;52.252;9.124;2022-09-02T14:01:48;5.83;;;1.50;;
49153;SDS011;49455;52.252;9.124;2022-09-02T14:06:48;3.13;;;1.40;;
49153;SDS011;49455;52.252;9.124;2022-09-02T14:11:51;2.38;;;1.48;;
49153;SDS011;49455;52.252;9.124;2022-09-02T14:17:15;3.97;;;1.23;;
49153;SDS011;49455;52.252;9.124;2022-09-02T14:22:25;2.40;;;1.55;;
49153;SDS011;49455;52.252;9.124;2022-09-02T14:27:27;4.30;;;1.55;;
49153;SDS011;49455;52.252;9.124;2022-09-02T14:32:27;1.90;;;1.40;;
49153;SDS011;49455;52.252;9.124;2022-09-02T14:37:28;2.73;;;1.57;;
49153;SDS011;49455;52.252;9.124;2022-09-02T14:42:28;4.10;;;1.60;;
49153;SDS011;49455;52.252;9.124;2022-09-02T14:47:29;4.40;;;1.60;;
49153;SDS011;49455;52.252;9.124;2022-09-02T14:52:35;3.10;;;1.52;;
49153;SDS011;49455;52.252;9.124;2022-09-02T14:57:36;3.28;;;1.67;;
49153;SDS011;49455;52.252;9.124;2022-09-02T15:02:37;3.50;;;1.43;;
49153;SDS011;49455;52.252;9.124;2022-09-02T15:07:43;3.35;;;1.48;;
49153;SDS011;49455;52.252;9.124;2022-09-02T15:12:48;4.47;;;1.87;;
49153;SDS011;49455;52.252;9.124;2022-09-02T15:17:50;6.85;;;1.50;;
49153;SDS011;49455;52.252;9.124;2022-09-02T15:22:50;3.13;;;1.67;;
49153;SDS011;49455;52.252;9.124;2022-09-02T15:27:52;2.95;;;1.40;;
49153;SDS011;49455;52.252;9.124;2022-09-02T15:32:52;3.53;;;1.43;;
49153;SDS011;49455;52.252;9.124;2022-09-02T15:37:53;1.50;;;1.40;;
49153;SDS011;49455;52.252;9.124;2022-09-02T15:42:53;3.83;;;1.37;;
49153;SDS011;49455;52.252;9.124;2022-09-02T15:47:57;5.20;;;1.60;;
49153;SDS011;49455;52.252;9.124;2022-09-02T15:52:58;2.58;;;1.40;;
49153;SDS011;49455;52.252;9.124;2022-09-02T15:57:58;3.93;;;1.30;;
49153;SDS011;49455;52.252;9.124;2022-09-02T16:02:59;4.53;;;1.40;;
49153;SDS011;49455;52.252;9.124;2022-09-02T16:07:59;4.50;;;1.60;;
49153;SDS011;49455;52.252;9.124;2022-09-02T16:13:00;6.13;;;1.60;;
49153;SDS011;49455;52.252;9.124;2022-09-02T16:18:00;8.53;;;1.50;;
49153;SDS011;49455;52.252;9.124;2022-09-02T16:23:01;1.87;;;1.30;;
49153;SDS011;49455;52.252;9.124;2022-09-02T16:28:01;4.00;;;1.67;;
49153;SDS011;49455;52.252;9.124;2022-09-02T16:33:02;6.30;;;1.60;;
49153;SDS011;49455;52.252;9.124;2022-09-02T16:38:02;5.53;;;1.50;;
49153;SDS011;49455;52.252;9.124;2022-09-02T16:43:03;3.70;;;1.50;;
49153;SDS011;49455;52.252;9.124;2022-09-02T16:48:03;3.43;;;1.50;;
49153;SDS011;49455;52.252;9.124;2022-09-02T16:53:03;2.27;;;1.10;;
49153;SDS011;49455;52.252;9.124;2022-09-02T16:58:04;4.57;;;1.40;;
49153;SDS011;49455;52.252;9.124;2022-09-02T17:03:13;4.67;;;1.20;;
49153;SDS011;49455;52.252;9.124;2022-09-02T17:08:14;9.60;;;4.03;;
49153;SDS011;49455;52.252;9.124;2022-09-02T17:13:15;6.37;;;3.10;;
49153;SDS011;49455;52.252;9.124;2022-09-02T17:18:15;4.87;;;1.70;;
49153;SDS011;49455;52.252;9.124;2022-09-02T17:23:16;4.60;;;1.90;;
49153;SDS011;49455;52.252;9.124;2022-09-02T17:28:17;5.30;;;1.17;;
49153;SDS011;49455;52.252;9.124;2022-09-02T17:33:17;5.50;;;1.30;;
49153;SDS011;49455;52.252;9.124;2022-09-02T17:38:17;3.37;;;1.47;;
49153;SDS011;49455;52.252;9.124;2022-09-02T17:43:18;3.70;;;1.17;;
49153;SDS011;49455;52.252;9.124;2022-09-02T17:48:18;6.20;;;1.33;;
49153;SDS011;49455;52.252;9.124;2022-09-02T17:53:19;4.20;;;1.27;;
49153;SDS011;49455;52.252;9.124;2022-09-02T17:58:19;3.43;;;1.30;;
49153;SDS011;49455;52.252;9.124;2022-09-02T18:03:22;4.07;;;1.38;;
49153;SDS011;49455;52.252;9.124;2022-09-02T18:18:58;2.45;;;1.00;;
49153;SDS011;49455;52.252;9.124;2022-09-02T18:45:49;5.60;;;1.30;;
49153;SDS011;49455;52.252;9.124;2022-09-02T18:50:59;5.10;;;1.08;;
49153;SDS011;49455;52.252;9.124;2022-09-02T18:56:07;3.45;;;1.13;;
49153;SDS011;49455;52.252;9.124;2022-09-02T19:01:13;4.65;;;1.10;;
49153;SDS011;49455;52.252;9.124;2022-09-02T19:06:21;2.95;;;0.90;;
49153;SDS011;49455;52.252;9.124;2022-09-02T19:11:23;3.65;;;1.13;;
49153;SDS011;49455;52.252;9.124;2022-09-02T19:16:25;1.70;;;0.90;;
49153;SDS011;49455;52.252;9.124;2022-09-02T19:21:33;5.20;;;1.00;;
49153;SDS011;49455;52.252;9.124;2022-09-02T19:26:35;2.08;;;1.05;;
49153;SDS011;49455;52.252;9.124;2022-09-02T19:31:38;1.33;;;0.95;;
49153;SDS011;49455;52.252;9.124;2022-09-02T19:36:40;2.67;;;0.90;;
49153;SDS011;49455;52.252;9.124;2022-09-02T19:41:44;2.08;;;1.02;;
49153;SDS011;49455;52.252;9.124;2022-09-02T19:46:45;1.87;;;0.80;;
49153;SDS011;49455;52.252;9.124;2022-09-02T19:51:45;3.40;;;1.20;;
49153;SDS011;49455;52.252;9.124;2022-09-02T19:56:46;2.67;;;0.97;;
49153;SDS011;49455;52.252;9.124;2022-09-02T20:01:47;1.27;;;0.80;;
49153;SDS011;49455;52.252;9.124;2022-09-02T20:06:48;5.50;;;1.00;;
49153;SDS011;49455;52.252;9.124;2022-09-02T20:11:48;3.93;;;0.90;;
49153;SDS011;49455;52.252;9.124;2022-09-02T20:16:59;2.72;;;1.20;;
49153;SDS011;49455;52.252;9.124;2022-09-02T20:22:02;2.47;;;1.00;;
49153;SDS011;49455;52.252;9.124;2022-09-02T20:32:23;0.95;;;0.70;;
49153;SDS011;49455;52.252;9.124;2022-09-02T20:37:37;1.70;;;0.90;;
49153;SDS011;49455;52.252;9.124;2022-09-02T20:42:51;4.63;;;0.98;;
49153;SDS011;49455;52.252;9.124;2022-09-02T20:53:18;1.15;;;0.80;;
49153;SDS011;49455;52.252;9.124;2022-09-02T21:03:51;4.60;;;0.90;;
49153;SDS011;49455;52.252;9.124;2022-09-02T21:14:21;5.90;;;1.00;;
49153;SDS011;49455;52.252;9.124;2022-09-02T21:24:32;1.10;;;0.90;;
49153;SDS011;49455;52.252;9.124;2022-09-02T21:29:36;1.48;;;1.00;;
49153;SDS011;49455;52.252;9.124;2022-09-02T21:34:47;0.80;;;0.70;;
49153;SDS011;49455;52.252;9.124;2022-09-02T21:39:54;4.88;;;0.90;;
49153;SDS011;49455;52.252;9.124;2022-09-02T21:50:27;2.03;;;1.00;;
49153;SDS011;49455;52.252;9.124;2022-09-02T22:01:12;5.40;;;1.13;;
49153;SDS011;49455;52.252;9.124;2022-09-02T22:06:20;1.60;;;0.80;;
49153;SDS011;49455;52.252;9.124;2022-09-02T22:22:08;1.63;;;0.77;;
49153;SDS011;49455;52.252;9.124;2022-09-02T22:27:15;2.70;;;0.90;;
49153;SDS011;49455;52.252;9.124;2022-09-02T22:32:18;1.83;;;0.80;;
49153;SDS011;49455;52.252;9.124;2022-09-02T22:37:23;1.55;;;0.80;;
49153;SDS011;49455;52.252;9.124;2022-09-02T22:42:34;3.42;;;0.90;;
49153;SDS011;49455;52.252;9.124;2022-09-02T22:47:37;4.65;;;0.80;;
49153;SDS011;49455;52.252;9.124;2022-09-02T22:52:44;3.40;;;1.05;;
49153;SDS011;49455;52.252;9.124;2022-09-02T22:57:48;1.00;;;0.80;;
49153;SDS011;49455;52.252;9.124;2022-09-02T23:03:18;1.50;;;0.90;;
49153;SDS011;49455;52.252;9.124;2022-09-02T23:08:33;3.33;;;0.80;;
49153;SDS011;49455;52.252;9.124;2022-09-02T23:18:53;3.20;;;0.90;;
49153;SDS011;49455;52.252;9.124;2022-09-02T23:29:18;2.45;;;1.10;;
49153;SDS011;49455;52.252;9.124;2022-09-02T23:44:37;3.47;;;0.82;;
